createdAt,value
2022-09-20T00:04:08.536Z,4.10
2022-09-20T00:09:12.804Z,3.40
2022-09-20T00:14:16.326Z,3.90
2022-09-20T00:19:22.275Z,3.70
2022-09-20T00:24:26.035Z,3.50
2022-09-20T00:29:29.549Z,7.90
2022-09-20T00:34:51.795Z,4.90
2022-09-20T00:39:55.419Z,4.60
2022-09-20T00:45:02.115Z,4.80
2022-09-20T00:50:27.224Z,3.20
2022-09-20T00:55:31.564Z,6.20
2022-09-20T01:00:35.392Z,5.60
2022-09-20T01:05:40.242Z,4.10
2022-09-20T01:10:44.276Z,3.30
2022-09-20T01:15:49.480Z,2.80
2022-09-20T01:20:53.159Z,2.90
2022-09-20T01:26:05.688Z,5.00
2022-09-20T01:31:26.723Z,4.10
2022-09-20T01:37:15.460Z,3.90
2022-09-20T01:42:20.103Z,5.20
2022-09-20T01:47:49.679Z,3.30
2022-09-20T01:53:22.712Z,4.80
2022-09-20T01:59:12.556Z,5.90
2022-09-20T02:04:26.351Z,3.00
2022-09-20T02:10:00.461Z,5.70
2022-09-20T02:15:42.667Z,5.60
2022-09-20T02:21:14.025Z,3.20
2022-09-20T02:31:57.341Z,3.90
2022-09-20T02:37:38.788Z,3.00
2022-09-20T02:42:54.683Z,4.30
2022-09-20T02:48:04.368Z,2.80
2022-09-20T02:53:37.347Z,3.80
2022-09-20T02:58:55.183Z,3.60
2022-09-20T03:04:07.606Z,2.50
2022-09-20T03:09:35.481Z,3.20
2022-09-20T03:14:52.691Z,4.70
2022-09-20T03:20:06.980Z,2.40
2022-09-20T03:25:19.403Z,3.50
2022-09-20T03:30:42.359Z,3.30
2022-09-20T03:36:12.698Z,3.30
2022-09-20T03:41:42.520Z,4.40
2022-09-20T03:46:47.779Z,3.20
2022-09-20T03:52:04.298Z,2.60
2022-09-20T03:57:13.450Z,3.20
2022-09-20T04:02:30.319Z,2.80
2022-09-20T04:07:52.431Z,1.60
2022-09-20T04:13:17.631Z,4.00
2022-09-20T04:18:31.182Z,3.40
2022-09-20T04:23:43.914Z,2.50
2022-09-20T04:28:52.960Z,2.10
2022-09-20T04:39:12.180Z,2.20
2022-09-20T04:44:38.320Z,2.90
2022-09-20T04:49:48.905Z,1.70
2022-09-20T04:55:34.169Z,3.20
2022-09-20T05:00:55.734Z,2.80
2022-09-20T05:06:25.557Z,3.80
2022-09-20T05:12:24.573Z,2.80
2022-09-20T05:17:44.808Z,2.50
2022-09-20T05:23:26.800Z,2.70
2022-09-20T05:29:01.234Z,3.30
2022-09-20T05:34:29.535Z,3.20
2022-09-20T05:39:41.488Z,2.60
2022-09-20T05:44:44.855Z,4.30
2022-09-20T05:50:27.269Z,3.80
2022-09-20T05:56:01.274Z,8.40
2022-09-20T06:01:41.431Z,6.70
2022-09-20T06:07:12.989Z,5.50
2022-09-20T06:12:56.421Z,8.10
2022-09-20T06:18:09.254Z,2.30
2022-09-20T06:23:13.185Z,5.00
2022-09-20T06:28:22.231Z,5.80
2022-09-20T06:33:28.833Z,9.70
2022-09-20T06:39:10.307Z,9.40
2022-09-20T06:44:13.931Z,13.00
2022-09-20T06:49:17.765Z,11.30
2022-09-20T06:54:23.533Z,9.30
2022-09-20T06:59:27.258Z,15.80
2022-09-20T07:04:32.183Z,13.70
2022-09-20T07:09:36.347Z,13.00
2022-09-20T07:14:40.376Z,3.70
2022-09-20T07:19:43.897Z,8.80
2022-09-20T07:24:48.646Z,7.70
2022-09-20T07:29:52.168Z,6.00
2022-09-20T07:34:55.893Z,5.50
2022-09-20T07:39:59.867Z,13.30
2022-09-20T07:45:04.060Z,8.90
2022-09-20T07:50:10.086Z,2.20
2022-09-20T08:00:35.193Z,3.00
2022-09-20T08:05:38.711Z,3.90
2022-09-20T08:10:42.233Z,3.30
2022-09-20T08:15:45.757Z,2.20
2022-09-20T08:20:49.181Z,3.70
2022-09-20T08:25:52.693Z,3.10
2022-09-20T08:31:07.851Z,2.20
2022-09-20T08:36:17.858Z,2.80
2022-09-20T08:41:31.395Z,3.10
2022-09-20T08:46:48.993Z,2.90
2022-09-20T08:51:54.729Z,3.00
2022-09-20T08:57:03.821Z,3.60
2022-09-20T09:02:24.835Z,2.40
2022-09-20T09:07:40.477Z,2.40
2022-09-20T09:12:48.769Z,3.90
2022-09-20T09:17:54.192Z,4.00
2022-09-20T09:23:12.216Z,2.70
2022-09-20T09:28:16.163Z,1.40
2022-09-20T09:33:30.946Z,4.70
2022-09-20T09:38:40.396Z,3.20
2022-09-20T09:43:44.143Z,2.90
2022-09-20T09:49:06.324Z,4.10
2022-09-20T09:54:19.915Z,2.40
2022-09-20T09:59:40.419Z,4.60
2022-09-20T10:04:58.572Z,4.60
2022-09-20T10:10:32.790Z,3.00
2022-09-20T10:15:59.543Z,3.00
2022-09-20T10:21:02.960Z,2.00
2022-09-20T10:26:24.494Z,2.90
2022-09-20T10:31:45.308Z,4.00
2022-09-20T10:36:58.556Z,3.00
2022-09-20T10:42:56.308Z,2.90
2022-09-20T10:47:59.731Z,5.40
2022-09-20T10:53:19.213Z,2.80
2022-09-20T10:58:28.770Z,1.90
2022-09-20T11:03:32.186Z,3.60
2022-09-20T11:08:38.430Z,2.40
2022-09-20T11:14:34.187Z,3.50
2022-09-20T11:19:56.735Z,2.80
2022-09-20T11:25:03.532Z,2.20
2022-09-20T11:30:22.140Z,2.60
2022-09-20T11:35:34.931Z,2.20
2022-09-20T11:40:43.403Z,2.30
2022-09-20T11:45:54.054Z,5.20
2022-09-20T11:51:27.138Z,2.60
2022-09-20T11:56:34.146Z,3.10
2022-09-20T12:01:40.835Z,4.50
2022-09-20T12:07:08.965Z,4.80
2022-09-20T12:12:44.232Z,5.40
2022-09-20T12:17:50.957Z,7.20
2022-09-20T12:23:32.960Z,3.10
2022-09-20T12:28:39.404Z,5.00
2022-09-20T12:34:10.287Z,3.60
2022-09-20T12:39:17.597Z,3.40
2022-09-20T12:44:33.089Z,2.20
2022-09-20T12:50:04.965Z,6.30
2022-09-20T12:55:21.997Z,35.30
2022-09-20T13:01:00.704Z,20.60
2022-09-20T13:06:07.246Z,11.90
2022-09-20T13:11:23.521Z,11.50
2022-09-20T13:16:37.458Z,13.50
2022-09-20T13:21:50.297Z,19.30
2022-09-20T13:27:06.582Z,11.20
2022-09-20T13:32:28.789Z,16.80
2022-09-20T13:37:37.356Z,10.70
2022-09-20T13:42:44.353Z,11.70
2022-09-20T13:47:53.964Z,11.00
2022-09-20T13:53:02.591Z,12.60
2022-09-20T13:58:20.042Z,11.90
2022-09-20T14:03:33.884Z,9.90
2022-09-20T14:08:50.103Z,9.70
2022-09-20T14:13:56.967Z,7.90
2022-09-20T14:19:08.409Z,8.00
2022-09-20T14:24:15.093Z,8.20
2022-09-20T14:29:42.563Z,8.40
2022-09-20T14:35:23.426Z,6.90
2022-09-20T14:40:38.545Z,9.60
2022-09-20T14:45:43.496Z,13.40
2022-09-20T14:51:16.577Z,10.60
2022-09-20T14:56:38.202Z,9.60
2022-09-20T15:02:16.858Z,8.00
2022-09-20T15:07:22.893Z,10.30
2022-09-20T15:12:26.416Z,15.30
2022-09-20T15:17:32.648Z,10.30
2022-09-20T15:22:39.286Z,7.90
2022-09-20T15:27:45.258Z,11.20
2022-09-20T15:32:50.326Z,8.30
2022-09-20T15:37:56.300Z,8.10
2022-09-20T15:43:01.198Z,27.80
2022-09-20T15:48:26.978Z,11.30
2022-09-20T15:54:03.941Z,23.40
2022-09-20T15:59:12.090Z,9.90
2022-09-20T16:04:19.192Z,9.20
2022-09-20T16:09:38.083Z,8.00
2022-09-20T16:14:49.255Z,12.20
2022-09-20T16:20:18.785Z,10.80
2022-09-20T16:25:43.003Z,11.40
2022-09-20T16:31:01.144Z,7.70
2022-09-20T16:36:11.917Z,8.30
2022-09-20T16:41:21.725Z,4.90
2022-09-20T16:46:38.083Z,8.20
2022-09-20T16:51:52.484Z,8.50
2022-09-20T16:57:10.096Z,9.50
2022-09-20T17:02:26.328Z,13.50
2022-09-20T17:07:44.232Z,9.10
2022-09-20T17:12:54.246Z,14.60
2022-09-20T17:18:01.475Z,12.20
2022-09-20T17:23:10.269Z,11.40
2022-09-20T17:28:17.071Z,10.40
2022-09-20T17:33:22.023Z,7.20
2022-09-20T17:38:40.517Z,13.00
2022-09-20T17:43:49.530Z,9.60
2022-09-20T17:49:02.716Z,13.50
2022-09-20T17:54:09.175Z,17.00
2022-09-20T17:59:17.469Z,16.70
2022-09-20T18:04:35.799Z,9.60
2022-09-20T18:09:45.744Z,6.60
2022-09-20T18:14:57.278Z,8.90
2022-09-20T18:20:05.447Z,11.20
2022-09-20T18:25:10.223Z,8.80
2022-09-20T18:30:19.034Z,13.20
2022-09-20T18:35:24.234Z,12.20
2022-09-20T18:40:32.602Z,12.70
2022-09-20T18:45:37.167Z,10.10
2022-09-20T18:50:42.384Z,8.30
2022-09-20T18:55:50.493Z,7.20
2022-09-20T19:01:23.035Z,14.70
2022-09-20T19:06:43.144Z,10.10
2022-09-20T19:11:55.715Z,15.30
2022-09-20T19:17:02.763Z,8.90
2022-09-20T19:22:40.096Z,7.00
2022-09-20T19:27:46.099Z,6.70
2022-09-20T19:32:52.210Z,10.70
2022-09-20T19:38:15.899Z,11.70
2022-09-20T19:43:28.320Z,11.80
2022-09-20T19:48:40.840Z,15.50
2022-09-20T19:53:55.896Z,11.20
2022-09-20T19:59:02.853Z,9.70
2022-09-20T20:04:07.796Z,11.10
2022-09-20T20:09:17.437Z,10.30
2022-09-20T20:14:42.654Z,18.60
2022-09-20T20:20:05.923Z,8.40
2022-09-20T20:25:32.062Z,8.90
2022-09-20T20:30:35.666Z,7.20
2022-09-20T20:35:39.818Z,6.80
2022-09-20T20:40:46.001Z,8.30
2022-09-20T20:45:52.898Z,14.20
2022-09-20T20:51:06.244Z,5.80
2022-09-20T20:56:26.083Z,9.40
2022-09-20T21:01:43.609Z,11.40
2022-09-20T21:06:55.103Z,9.00
2022-09-20T21:12:05.456Z,6.70
2022-09-20T21:17:08.979Z,9.60
2022-09-20T21:22:12.496Z,7.80
2022-09-20T21:27:16.240Z,5.50
2022-09-20T21:32:21.280Z,4.60
2022-09-20T21:37:25.774Z,6.30
2022-09-20T21:42:29.854Z,4.20
2022-09-20T21:47:36.510Z,9.40
2022-09-20T21:52:41.195Z,4.10
2022-09-20T21:57:51.676Z,4.50
2022-09-20T22:02:59.496Z,3.90
2022-09-20T22:08:04.254Z,4.50
2022-09-20T22:13:08.685Z,4.20
2022-09-20T22:18:12.306Z,5.70
2022-09-20T22:23:16.239Z,4.20
2022-09-20T22:28:19.758Z,4.20
2022-09-20T22:33:23.387Z,5.40
2022-09-20T22:38:29.503Z,6.30
2022-09-20T22:43:34.711Z,6.50
2022-09-20T22:48:38.973Z,4.40
2022-09-20T22:53:42.989Z,5.20
2022-09-20T22:58:57.165Z,3.90
2022-09-20T23:04:12.842Z,4.40
2022-09-20T23:09:22.107Z,6.00
2022-09-20T23:14:25.968Z,9.40
2022-09-20T23:19:30.610Z,5.10
2022-09-20T23:24:34.817Z,4.10
2022-09-20T23:29:38.744Z,5.00
2022-09-20T23:34:42.164Z,6.00
2022-09-20T23:39:45.787Z,4.20
2022-09-20T23:44:49.186Z,3.80
2022-09-20T23:49:52.829Z,3.90
2022-09-20T23:54:56.350Z,3.40
2022-09-20T23:59:59.908Z,3.20
